Aérodrome :
LOGIN :

S'inscrire | Disclaimer

   EN    FR    IT 

 










Légende :    VFR   VFR Marginal   IFR   IFR Intensif   IFR Très Intensif
Visi : 
Plafond : 
>= 8 km
>= 3000ft
5 à 8 km
1000 à 3000 ft
1500m à 5 km
500 à 1000 ft
800 à 1500m
200 à 500 ft
< 800m
< 200 ft
Symboles :   Orages  Brouillard  Fortes neiges  Fortes précipitations  Vent > 20 kt
SIGMETs :   Divers  Orages  Givrage  Turbulence  Onde Orograph.  Cendres Volcan.






- Altitude de l'aérodrome : 646 ft
- Code IATA : VNO


EYVI - Vilnius int.

DERNIER METAR :
  • 211020Z 26018KT 4700 BR OVC002 03/03 Q1021 R19/2///95 TEMPO 1500 DZ BR

METARs EXPIRÉS :
  • 210950Z 26018KT 4700 -DZ BR OVC002 03/03 Q1022 R19/2///95 TEMPO 1500 DZ BR
  • 210920Z 27017G27KT 3600 BR OVC002 03/03 Q1023 R19/2///95 TEMPO 1500 DZ BR
  • 210850Z 27016KT 3300 -DZ BR OVC002 03/03 Q1023 R19/2///95 TEMPO 1500 DZ BR
  • 210820Z 26014KT 4600 -DZ BR OVC002 03/03 Q1023 R19/2///95 NOSIG
  • 210750Z 26016KT 5000 -DZ BR OVC002 03/03 Q1023 R19/2///95 NOSIG

TAF TAF EYVI
Valide du 21 à 06h jusqu'au 22 à 06h UTC


210500Z 2106/2206 26014G24KT 5000 BR OVC002
TEMPO 2106/2112 1500 DZ
BECMG 2114/2115 1500
TEMPO 2115/2119 0500 DZ FG
BECMG 2119/2120 0500 DZ FG
TEMPO 2203/2206 1500 RA BR



MET'MAP, la Météo Aéronautique d'un coup d'oeil ! - Copyright ORBIFLY Décembre 2007 - Disclaimer

ORBIFLY MET'MAP TEAM :

Programmation & Développement : Alexandra Zaïnal
Sur une idée originale de : Baudouin d'Aumeries
Assistance à la programmation : Marc-Olivier Méhu
Soutien technique & logistique : Manuel Goepfert

Contact : metmap@orbifly.com




SOURCES & CREDITS :

   NOAA